Time;durP1;ratioP1;P1;durP2;ratioP2;P2;SDS_P1;SDS_P2;PMS_P1;PMS_P2;Temp;Humidity;BMP_temperature;BMP_pressure;BME280_temperature;BME280_humidity;BME280_pressure;Samples;Min_cycle;Max_cycle;Signal;HPM_P1;HPM_P2
2022/05/27 00:01:30;;;;;;;9.43;4.20;;;;;;;;;;6261211;22;20015;-90
2022/05/27 00:03:59;;;;;;;12.90;4.80;;;;;;;;;;6325419;22;20022;-93
2022/05/27 00:06:28;;;;;;;9.05;4.65;;;;;;;;;;6290372;22;20084;-93
2022/05/27 00:08:56;;;;;;;9.57;4.15;;;;;;;;;;6289210;22;20031;-93
2022/05/27 00:11:23;;;;;;;9.40;4.40;;;;;;;;;;6323229;22;20015;-85
2022/05/27 00:13:52;;;;;;;8.35;4.78;;;;;;;;;;6319570;22;20025;-87
2022/05/27 00:16:43;;;;;;;13.35;4.43;;;;;;;;;;6324562;22;20017;-87
2022/05/27 00:19:11;;;;;;;11.32;4.53;;;;;;;;;;6258703;22;20023;-87
2022/05/27 00:22:05;;;;;;;10.32;4.30;;;;;;;;;;6309951;22;20023;-88
2022/05/27 00:24:37;;;;;;;8.65;4.40;;;;;;;;;;6295876;22;20080;-88
2022/05/27 00:27:08;;;;;;;8.63;4.35;;;;;;;;;;6319840;22;20022;-88
2022/05/27 00:29:36;;;;;;;12.98;4.95;;;;;;;;;;6283768;22;20762;-86
2022/05/27 00:32:27;;;;;;;9.10;4.65;;;;;;;;;;6288246;22;20050;-82
2022/05/27 00:35:19;;;;;;;11.48;4.18;;;;;;;;;;6283137;22;20022;-82
2022/05/27 00:38:12;;;;;;;14.48;4.45;;;;;;;;;;6287423;22;20014;-82
2022/05/27 00:40:42;;;;;;;8.50;4.20;;;;;;;;;;6281725;22;20023;-82
2022/05/27 00:43:16;;;;;;;10.75;4.20;;;;;;;;;;6319793;22;20098;-82
2022/05/27 00:45:45;;;;;;;11.45;3.95;;;;;;;;;;6281875;22;20023;-84
2022/05/27 00:48:15;;;;;;;8.73;3.15;;;;;;;;;;6319703;22;20487;-84
2022/05/27 00:50:49;;;;;;;10.25;4.68;;;;;;;;;;6318631;22;20022;-84
2022/05/27 00:53:27;;;;;;;14.82;4.53;;;;;;;;;;6319438;22;20136;-84
2022/05/27 00:55:58;;;;;;;10.65;3.53;;;;;;;;;;6319344;22;20064;-88
2022/05/27 00:58:43;;;;;;;15.65;3.88;;;;;;;;;;6284311;22;20035;-87
2022/05/27 01:01:13;;;;;;;11.00;3.60;;;;;;;;;;6321887;22;20018;-90
2022/05/27 01:03:48;;;;;;;8.70;3.20;;;;;;;;;;6320321;22;20018;-90
2022/05/27 01:06:15;;;;;;;9.43;3.72;;;;;;;;;;6308137;22;20350;-90
2022/05/27 01:09:09;;;;;;;11.20;3.33;;;;;;;;;;6325012;22;20047;-90
2022/05/27 01:11:46;;;;;;;9.88;2.83;;;;;;;;;;6283689;22;20027;-89
2022/05/27 01:15:09;;;;;;;9.50;3.20;;;;;;;;;;6295487;22;20052;-94
2022/05/27 01:17:59;;;;;;;10.25;2.97;;;;;;;;;;6288272;22;20026;-96
2022/05/27 01:20:38;;;;;;;7.78;2.38;;;;;;;;;;6288085;22;20026;-94
2022/05/27 01:23:38;;;;;;;13.82;2.97;;;;;;;;;;6288944;22;20021;-92
2022/05/27 01:26:17;;;;;;;14.13;2.65;;;;;;;;;;6287334;22;20027;-92
2022/05/27 01:29:10;;;;;;;8.00;2.30;;;;;;;;;;6262633;22;20050;-82
2022/05/27 01:31:48;;;;;;;14.88;3.10;;;;;;;;;;6317489;22;20488;-82
2022/05/27 01:34:27;;;;;;;13.68;2.60;;;;;;;;;;6317498;22;20027;-81
2022/05/27 01:37:08;;;;;;;5.93;2.22;;;;;;;;;;6253447;22;20076;-81
2022/05/27 01:40:12;;;;;;;11.27;2.20;;;;;;;;;;6313797;22;20010;-81
2022/05/27 01:42:44;;;;;;;9.63;3.28;;;;;;;;;;6281081;22;20015;-85
2022/05/27 01:45:33;;;;;;;12.25;2.72;;;;;;;;;;6282057;22;20475;-85
2022/05/27 01:48:17;;;;;;;9.57;2.15;;;;;;;;;;6318244;22;20341;-83
2022/05/27 01:51:00;;;;;;;11.90;2.42;;;;;;;;;;6318201;22;20019;-85
2022/05/27 01:53:35;;;;;;;17.35;3.40;;;;;;;;;;6277331;22;20519;-81
2022/05/27 01:56:39;;;;;;;9.43;2.53;;;;;;;;;;6313495;22;20011;-80
2022/05/27 01:59:46;;;;;;;11.60;2.00;;;;;;;;;;6315369;22;20022;-81
2022/05/27 02:02:19;;;;;;;13.90;1.90;;;;;;;;;;6319568;22;20026;-91
2022/05/27 02:05:02;;;;;;;11.07;2.90;;;;;;;;;;6284477;22;20026;-91
2022/05/27 02:07:52;;;;;;;12.23;2.78;;;;;;;;;;6346939;22;20034;-92
2022/05/27 02:10:46;;;;;;;12.48;2.33;;;;;;;;;;6286553;22;20076;-92
2022/05/27 02:13:40;;;;;;;11.40;2.30;;;;;;;;;;6286119;22;20387;-92
2022/05/27 02:16:11;;;;;;;8.68;2.58;;;;;;;;;;6321925;22;20018;-93
2022/05/27 02:19:10;;;;;;;8.77;1.95;;;;;;;;;;6284673;22;20349;-90
2022/05/27 02:21:46;;;;;;;13.80;2.58;;;;;;;;;;6319590;22;20026;-85
2022/05/27 02:24:37;;;;;;;11.52;2.38;;;;;;;;;;6317856;22;20015;-87
2022/05/27 02:27:37;;;;;;;9.90;2.15;;;;;;;;;;6346213;22;20022;-88
2022/05/27 02:30:09;;;;;;;15.90;2.20;;;;;;;;;;6281727;22;20105;-87
2022/05/27 02:35:07;;;;;;;9.25;1.90;;;;;;;;;;6286677;22;20023;-92
2022/05/27 02:36:05;;;;;;;10.77;1.73;;;;;;;;;;6322235;22;20010;-93
2022/05/27 02:38:33;;;;;;;7.10;1.55;;;;;;;;;;6286436;22;20437;-93
2022/05/27 02:41:07;;;;;;;16.77;2.20;;;;;;;;;;6285097;22;20449;-86
2022/05/27 02:44:30;;;;;;;10.38;1.90;;;;;;;;;;6318654;22;20014;-81
2022/05/27 02:47:42;;;;;;;14.23;2.20;;;;;;;;;;6318525;22;20019;-81
2022/05/27 02:50:30;;;;;;;15.20;2.40;;;;;;;;;;6251900;22;20019;-81
2022/05/27 02:53:12;;;;;;;11.57;1.90;;;;;;;;;;6315056;22;20021;-81
2022/05/27 02:55:46;;;;;;;10.95;2.10;;;;;;;;;;6277075;22;20453;-81
2022/05/27 02:58:13;;;;;;;6.15;1.70;;;;;;;;;;6316103;22;20018;-84
2022/05/27 03:00:46;;;;;;;17.13;2.65;;;;;;;;;;6343989;22;20045;-83
2022/05/27 03:03:13;;;;;;;7.15;1.60;;;;;;;;;;6306364;22;20109;-85
2022/05/27 03:05:41;;;;;;;7.80;2.10;;;;;;;;;;6305759;22;20015;-86
2022/05/27 03:09:02;;;;;;;11.82;2.20;;;;;;;;;;6284455;22;20111;-82
2022/05/27 03:12:33;;;;;;;6.80;1.85;;;;;;;;;;6314554;22;20025;-81
2022/05/27 03:15:23;;;;;;;11.18;1.80;;;;;;;;;;6223299;23;20028;-83
2022/05/27 03:18:26;;;;;;;10.63;1.70;;;;;;;;;;6228072;23;20027;-83
2022/05/27 03:21:11;;;;;;;8.20;1.95;;;;;;;;;;6187796;23;20052;-83
2022/05/27 03:24:00;;;;;;;7.03;1.80;;;;;;;;;;6218282;23;20024;-92
2022/05/27 03:26:51;;;;;;;10.18;2.10;;;;;;;;;;6203647;23;20096;-92
2022/05/27 03:29:53;;;;;;;8.32;1.67;;;;;;;;;;6192417;23;20407;-90
2022/05/27 03:32:21;;;;;;;10.15;1.75;;;;;;;;;;6181132;23;20028;-83
2022/05/27 03:34:51;;;;;;;11.35;1.83;;;;;;;;;;6195879;23;20470;-82
2022/05/27 03:38:04;;;;;;;7.35;1.90;;;;;;;;;;6187905;23;20055;-85
2022/05/27 03:40:44;;;;;;;7.50;2.00;;;;;;;;;;6187042;23;20024;-86
2022/05/27 03:44:02;;;;;;;9.23;1.98;;;;;;;;;;6236918;23;20038;-91
2022/05/27 03:46:38;;;;;;;11.18;2.05;;;;;;;;;;6227743;23;20058;-91
2022/05/27 03:49:29;;;;;;;9.55;2.08;;;;;;;;;;6272307;22;20015;-91
2022/05/27 03:52:25;;;;;;;9.75;1.90;;;;;;;;;;6283672;22;20445;-90
2022/05/27 03:54:53;;;;;;;10.68;2.50;;;;;;;;;;6347643;22;20014;-91
2022/05/27 03:57:45;;;;;;;8.95;1.98;;;;;;;;;;6285621;22;20102;-91
2022/05/27 04:00:37;;;;;;;9.23;1.88;;;;;;;;;;6290891;22;20480;-91
2022/05/27 04:03:05;;;;;;;15.18;2.33;;;;;;;;;;6328343;22;20041;-90
2022/05/27 04:05:33;;;;;;;13.80;1.73;;;;;;;;;;6320089;22;20701;-91
2022/05/27 04:08:02;;;;;;;10.90;2.25;;;;;;;;;;6310288;22;20019;-90
2022/05/27 04:10:29;;;;;;;6.05;1.50;;;;;;;;;;6284357;22;20101;-91
2022/05/27 04:12:57;;;;;;;8.13;1.52;;;;;;;;;;6279741;22;20023;-83
2022/05/27 04:15:25;;;;;;;13.07;2.20;;;;;;;;;;6317042;22;20023;-86
2022/05/27 04:17:57;;;;;;;10.05;1.45;;;;;;;;;;6281435;22;20508;-86
2022/05/27 04:20:25;;;;;;;9.05;1.67;;;;;;;;;;6317398;22;20079;-86
2022/05/27 04:22:54;;;;;;;8.10;1.90;;;;;;;;;;6306774;22;20022;-83
2022/05/27 04:25:22;;;;;;;9.98;1.65;;;;;;;;;;6281344;22;20027;-87
2022/05/27 04:27:49;;;;;;;10.70;2.05;;;;;;;;;;6346120;22;20391;-86
2022/05/27 04:30:17;;;;;;;5.22;1.55;;;;;;;;;;6320183;22;20064;-87
2022/05/27 04:32:45;;;;;;;9.35;1.67;;;;;;;;;;6320728;22;20019;-89
2022/05/27 04:35:13;;;;;;;8.32;1.73;;;;;;;;;;6283471;22;20023;-89
2022/05/27 04:37:41;;;;;;;10.40;1.90;;;;;;;;;;6345669;22;20056;-89
2022/05/27 04:40:33;;;;;;;7.43;1.52;;;;;;;;;;6319227;22;20034;-88
2022/05/27 04:43:02;;;;;;;9.90;1.92;;;;;;;;;;6283639;22;20034;-85
2022/05/27 04:46:20;;;;;;;10.38;2.22;;;;;;;;;;6346553;22;20098;-85
2022/05/27 04:48:49;;;;;;;11.63;1.83;;;;;;;;;;6293840;22;20019;-87
2022/05/27 04:51:21;;;;;;;6.32;1.65;;;;;;;;;;6285085;22;20026;-83
2022/05/27 04:53:49;;;;;;;4.60;1.45;;;;;;;;;;6282982;22;20789;-83
2022/05/27 04:56:18;;;;;;;11.10;1.80;;;;;;;;;;6319369;22;20026;-83
2022/05/27 04:58:45;;;;;;;7.63;1.90;;;;;;;;;;6281980;22;20027;-81
2022/05/27 05:01:37;;;;;;;11.93;1.95;;;;;;;;;;6324193;22;20022;-82
2022/05/27 05:04:05;;;;;;;9.98;2.10;;;;;;;;;;6318124;22;20029;-83
2022/05/27 05:06:37;;;;;;;9.45;1.48;;;;;;;;;;6282632;22;20049;-83
2022/05/27 05:09:31;;;;;;;7.38;1.70;;;;;;;;;;6286884;22;20384;-83
2022/05/27 05:11:59;;;;;;;8.80;1.40;;;;;;;;;;6346243;22;20068;-83
2022/05/27 05:14:31;;;;;;;8.10;1.35;;;;;;;;;;6283525;22;20026;-82
2022/05/27 05:17:08;;;;;;;4.50;1.10;;;;;;;;;;6281557;22;20388;-82
2022/05/27 05:19:35;;;;;;;7.68;1.60;;;;;;;;;;6346183;22;20042;-82
2022/05/27 05:22:29;;;;;;;7.07;1.92;;;;;;;;;;6287442;22;20034;-82
2022/05/27 05:25:01;;;;;;;8.82;1.60;;;;;;;;;;6282129;22;20310;-81
2022/05/27 05:27:29;;;;;;;7.82;1.70;;;;;;;;;;6308245;22;20023;-82
2022/05/27 05:29:57;;;;;;;7.70;1.42;;;;;;;;;;6317782;22;20041;-83
2022/05/27 05:32:25;;;;;;;5.18;1.77;;;;;;;;;;6344362;22;20014;-83
2022/05/27 05:35:03;;;;;;;7.53;1.40;;;;;;;;;;6282464;22;20022;-82
2022/05/27 05:37:31;;;;;;;9.52;1.77;;;;;;;;;;6282448;22;20026;-83
2022/05/27 05:40:13;;;;;;;6.95;1.25;;;;;;;;;;6317730;22;20064;-83
2022/05/27 05:42:42;;;;;;;5.85;1.58;;;;;;;;;;6256649;22;20093;-82
2022/05/27 05:45:12;;;;;;;9.13;1.58;;;;;;;;;;6281871;22;20015;-81
2022/05/27 05:47:44;;;;;;;10.43;1.90;;;;;;;;;;6283335;22;20068;-82
2022/05/27 05:50:37;;;;;;;5.95;1.50;;;;;;;;;;6345299;22;20015;-82
2022/05/27 05:53:13;;;;;;;4.57;1.00;;;;;;;;;;6281951;22;20023;-83
2022/05/27 05:55:41;;;;;;;7.25;1.38;;;;;;;;;;6318413;22;20046;-83
2022/05/27 05:58:33;;;;;;;5.60;1.60;;;;;;;;;;6318705;22;20006;-82
2022/05/27 06:01:05;;;;;;;9.23;1.48;;;;;;;;;;6308300;22;20030;-82
2022/05/27 06:03:57;;;;;;;5.32;1.00;;;;;;;;;;6324367;22;20014;-83
2022/05/27 06:06:29;;;;;;;10.23;1.73;;;;;;;;;;6318531;22;20064;-83
2022/05/27 06:08:57;;;;;;;8.52;1.42;;;;;;;;;;6281745;22;20022;-81
2022/05/27 06:11:49;;;;;;;4.93;1.20;;;;;;;;;;6288005;22;20038;-82
2022/05/27 06:14:17;;;;;;;6.75;1.30;;;;;;;;;;6318264;22;20025;-83
2022/05/27 06:16:45;;;;;;;7.75;1.48;;;;;;;;;;6281621;22;20018;-82
2022/05/27 06:19:13;;;;;;;10.18;1.60;;;;;;;;;;6305586;22;20031;-84
2022/05/27 06:21:41;;;;;;;16.90;1.85;;;;;;;;;;6318550;22;20043;-87
2022/05/27 06:24:10;;;;;;;7.60;1.40;;;;;;;;;;6281797;22;20361;-86
2022/05/27 06:26:38;;;;;;;7.30;1.55;;;;;;;;;;6308000;22;20027;-86
2022/05/27 06:34:45;;;;;;;12.07;1.98;;;;;;;;;;6344431;22;20445;-88
2022/05/27 06:37:17;;;;;;;6.85;1.20;;;;;;;;;;6344213;22;20022;-88
2022/05/27 06:39:49;;;;;;;6.72;1.67;;;;;;;;;;6281891;22;20022;-87
2022/05/27 06:42:22;;;;;;;6.85;1.33;;;;;;;;;;6293562;22;20082;-87
2022/05/27 06:45:13;;;;;;;6.38;2.03;;;;;;;;;;6281041;22;20017;-88
2022/05/27 06:47:41;;;;;;;10.07;1.92;;;;;;;;;;6281486;22;20019;-87
2022/05/27 06:50:36;;;;;;;12.68;2.17;;;;;;;;;;6261034;22;20022;-87
2022/05/27 06:53:03;;;;;;;10.25;1.40;;;;;;;;;;6281455;22;20052;-86
2022/05/27 06:55:31;;;;;;;11.85;1.60;;;;;;;;;;6316316;22;20060;-86
2022/05/27 06:57:59;;;;;;;5.43;2.08;;;;;;;;;;6344073;22;20430;-88
2022/05/27 07:00:27;;;;;;;7.35;1.83;;;;;;;;;;6281846;22;20023;-89
2022/05/27 07:03:19;;;;;;;8.23;1.83;;;;;;;;;;6307006;22;20445;-87
2022/05/27 07:05:51;;;;;;;8.63;2.08;;;;;;;;;;6281257;22;20058;-89
2022/05/27 07:08:19;;;;;;;5.80;1.60;;;;;;;;;;6344949;22;20046;-86
2022/05/27 07:11:11;;;;;;;12.68;2.55;;;;;;;;;;6345109;22;20030;-87
2022/05/27 07:14:03;;;;;;;12.52;1.40;;;;;;;;;;6307055;22;20030;-86
2022/05/27 07:16:31;;;;;;;7.95;1.27;;;;;;;;;;6344904;22;20018;-87
2022/05/27 07:19:23;;;;;;;7.60;1.30;;;;;;;;;;6318056;22;20015;-88
2022/05/27 07:22:15;;;;;;;5.20;1.33;;;;;;;;;;6317627;22;20021;-88
2022/05/27 07:24:44;;;;;;;7.55;1.42;;;;;;;;;;6317201;22;20064;-89
2022/05/27 07:27:14;;;;;;;8.93;2.33;;;;;;;;;;6281395;22;20027;-87
2022/05/27 07:29:43;;;;;;;10.57;1.52;;;;;;;;;;6306984;22;20023;-88
2022/05/27 07:32:14;;;;;;;7.07;1.58;;;;;;;;;;6292374;22;20034;-87
2022/05/27 07:35:10;;;;;;;8.32;1.38;;;;;;;;;;6306995;22;20497;-87
2022/05/27 07:37:39;;;;;;;9.98;1.60;;;;;;;;;;6281588;22;20019;-88
2022/05/27 07:40:34;;;;;;;11.20;1.50;;;;;;;;;;6344166;22;20472;-88
2022/05/27 07:43:09;;;;;;;8.75;1.55;;;;;;;;;;6306527;22;20019;-88
2022/05/27 07:48:38;;;;;;;6.57;1.58;;;;;;;;;;6281447;22;20026;-88
2022/05/27 07:51:12;;;;;;;6.82;1.70;;;;;;;;;;6278828;22;20037;-88
2022/05/27 07:53:42;;;;;;;9.48;2.00;;;;;;;;;;6317334;22;20007;-88
2022/05/27 07:56:12;;;;;;;8.63;1.52;;;;;;;;;;6317256;22;20477;-86
2022/05/27 07:58:44;;;;;;;5.45;1.30;;;;;;;;;;6318254;22;20057;-87
2022/05/27 08:01:46;;;;;;;6.72;1.20;;;;;;;;;;6256978;22;20080;-87
2022/05/27 08:04:16;;;;;;;5.18;1.48;;;;;;;;;;6292259;22;20014;-87
2022/05/27 08:07:09;;;;;;;5.22;1.35;;;;;;;;;;6287213;22;20050;-88
2022/05/27 08:10:03;;;;;;;8.40;1.48;;;;;;;;;;6322674;22;20124;-86
2022/05/27 08:12:39;;;;;;;11.05;1.33;;;;;;;;;;6318774;22;20015;-88
2022/05/27 08:15:13;;;;;;;8.10;1.67;;;;;;;;;;6281218;22;20076;-88
2022/05/27 08:17:44;;;;;;;5.40;1.10;;;;;;;;;;6282327;22;20352;-88
2022/05/27 08:20:18;;;;;;;5.25;1.25;;;;;;;;;;6318439;22;20524;-89
2022/05/27 08:23:14;;;;;;;7.10;1.52;;;;;;;;;;6345411;22;20039;-87
2022/05/27 08:25:43;;;;;;;6.90;1.48;;;;;;;;;;6294050;22;20014;-88
2022/05/27 08:28:15;;;;;;;5.90;1.50;;;;;;;;;;6319252;22;20391;-87
2022/05/27 08:30:43;;;;;;;9.25;2.13;;;;;;;;;;6257924;22;20018;-87
2022/05/27 08:33:15;;;;;;;8.63;1.33;;;;;;;;;;6319748;22;20029;-88
2022/05/27 08:38:33;;;;;;;5.38;1.05;;;;;;;;;;6308368;22;20023;-88
2022/05/27 08:41:07;;;;;;;6.35;1.45;;;;;;;;;;6346015;22;20087;-88
2022/05/27 08:44:06;;;;;;;7.45;1.90;;;;;;;;;;6262593;22;20042;-89
2022/05/27 08:47:15;;;;;;;9.65;1.60;;;;;;;;;;6318301;22;20010;-88
2022/05/27 08:49:52;;;;;;;6.68;1.58;;;;;;;;;;6293652;22;20022;-87
2022/05/27 08:52:41;;;;;;;4.88;0.95;;;;;;;;;;6282214;22;20018;-88
2022/05/27 09:01:19;;;;;;;7.85;1.50;;;;;;;;;;6345636;22;20022;-88
2022/05/27 09:03:55;;;;;;;8.85;1.35;;;;;;;;;;6318509;22;20453;-89
2022/05/27 09:06:32;;;;;;;7.32;1.35;;;;;;;;;;6346028;22;20064;-88
2022/05/27 09:09:01;;;;;;;8.57;1.83;;;;;;;;;;6281123;22;20029;-87
2022/05/27 09:11:40;;;;;;;8.98;1.40;;;;;;;;;;6318028;22;20085;-88
2022/05/27 09:14:33;;;;;;;6.47;1.83;;;;;;;;;;6321889;22;20453;-89
2022/05/27 09:17:34;;;;;;;6.95;1.55;;;;;;;;;;6306356;22;20018;-89
2022/05/27 09:20:24;;;;;;;7.55;1.50;;;;;;;;;;6280913;22;20399;-90
2022/05/27 09:23:23;;;;;;;7.00;1.48;;;;;;;;;;6293241;22;20085;-90
2022/05/27 09:26:10;;;;;;;5.70;1.23;;;;;;;;;;6315357;22;20030;-83
2022/05/27 09:29:22;;;;;;;5.55;1.60;;;;;;;;;;6326149;22;20441;-92
2022/05/27 09:31:54;;;;;;;9.23;1.50;;;;;;;;;;6284856;22;20019;-91
2022/05/27 09:34:28;;;;;;;9.32;1.77;;;;;;;;;;6259640;22;20064;-93
2022/05/27 09:37:00;;;;;;;8.90;1.80;;;;;;;;;;6320549;22;20018;-92
2022/05/27 09:39:33;;;;;;;8.80;2.00;;;;;;;;;;6284459;22;20030;-91
2022/05/27 09:42:19;;;;;;;9.10;1.73;;;;;;;;;;6259694;22;20362;-92
2022/05/27 09:44:54;;;;;;;10.13;1.70;;;;;;;;;;6310205;22;20409;-92
2022/05/27 09:47:31;;;;;;;6.35;1.63;;;;;;;;;;6284779;22;20018;-91
2022/05/27 09:50:24;;;;;;;6.18;1.63;;;;;;;;;;6283991;22;20018;-92
2022/05/27 09:52:56;;;;;;;9.45;1.80;;;;;;;;;;6284381;22;20109;-91
2022/05/27 09:55:38;;;;;;;6.50;1.77;;;;;;;;;;6321865;22;20015;-91
2022/05/27 09:58:07;;;;;;;15.23;1.95;;;;;;;;;;6283845;22;20510;-93
2022/05/27 10:00:43;;;;;;;10.50;1.65;;;;;;;;;;6322084;22;20067;-92
2022/05/27 10:03:32;;;;;;;9.32;2.08;;;;;;;;;;6319786;22;20038;-90
2022/05/27 10:09:30;;;;;;;6.75;1.40;;;;;;;;;;6347022;22;20072;-90
2022/05/27 10:12:29;;;;;;;10.43;2.15;;;;;;;;;;6288978;22;20042;-91
2022/05/27 10:15:06;;;;;;;10.48;1.70;;;;;;;;;;6307847;22;20022;-89
2022/05/27 10:17:38;;;;;;;9.95;1.77;;;;;;;;;;6318636;22;20023;-91
2022/05/27 10:20:14;;;;;;;9.02;2.20;;;;;;;;;;6318809;22;20025;-90
2022/05/27 10:23:11;;;;;;;12.48;2.20;;;;;;;;;;6319024;22;20082;-90
2022/05/27 10:25:43;;;;;;;7.28;1.85;;;;;;;;;;6319105;22;20015;-90
2022/05/27 10:28:27;;;;;;;7.40;1.70;;;;;;;;;;6345218;22;20025;-91
2022/05/27 10:31:01;;;;;;;11.95;2.05;;;;;;;;;;6319717;22;20536;-91
2022/05/27 10:33:39;;;;;;;11.65;1.73;;;;;;;;;;6318785;22;20090;-91
2022/05/27 10:37:05;;;;;;;8.05;1.80;;;;;;;;;;6281213;22;20115;-90
2022/05/27 10:39:46;;;;;;;9.25;1.88;;;;;;;;;;6212832;23;20078;-90
2022/05/27 10:42:29;;;;;;;7.65;1.63;;;;;;;;;;6213131;23;20028;-91
2022/05/27 10:45:16;;;;;;;9.23;1.75;;;;;;;;;;6223622;23;20020;-91
2022/05/27 10:48:32;;;;;;;9.98;1.70;;;;;;;;;;6223356;23;20863;-90
2022/05/27 10:51:32;;;;;;;11.70;1.58;;;;;;;;;;6239074;23;20024;-90
2022/05/27 10:54:24;;;;;;;11.80;2.08;;;;;;;;;;6199462;23;20756;-90
2022/05/27 11:03:34;;;;;;;9.68;2.00;;;;;;;;;;6250881;23;20477;-89
2022/05/27 11:06:47;;;;;;;10.45;2.15;;;;;;;;;;6189772;23;20371;-90
2022/05/27 11:16:16;;;;;;;7.03;1.48;;;;;;;;;;6303591;22;20038;-89
2022/05/27 11:19:00;;;;;;;7.57;2.00;;;;;;;;;;6318305;22;20644;-89
2022/05/27 11:21:49;;;;;;;14.02;1.90;;;;;;;;;;6284074;22;20052;-89
2022/05/27 11:24:31;;;;;;;14.30;1.92;;;;;;;;;;6344570;22;20337;-91
2022/05/27 11:27:18;;;;;;;10.18;2.05;;;;;;;;;;6319105;22;20019;-89
2022/05/27 11:30:34;;;;;;;9.30;1.83;;;;;;;;;;6308416;22;20406;-89
2022/05/27 11:34:25;;;;;;;12.68;2.00;;;;;;;;;;6345747;22;20018;-90
2022/05/27 11:37:18;;;;;;;10.35;1.90;;;;;;;;;;6295422;22;20019;-90
2022/05/27 11:40:13;;;;;;;9.35;1.60;;;;;;;;;;6321950;22;20322;-90
2022/05/27 11:43:04;;;;;;;6.80;1.48;;;;;;;;;;6286402;22;20112;-91
2022/05/27 11:45:35;;;;;;;6.15;1.35;;;;;;;;;;6284312;22;20026;-92
2022/05/27 11:48:49;;;;;;;11.63;1.70;;;;;;;;;;6315468;22;20445;-86
2022/05/27 11:52:09;;;;;;;7.82;1.63;;;;;;;;;;6321791;22;20116;-88
2022/05/27 11:54:51;;;;;;;8.73;1.83;;;;;;;;;;6306185;22;20086;-87
2022/05/27 11:57:40;;;;;;;13.02;1.90;;;;;;;;;;6284904;22;20023;-86
2022/05/27 12:00:16;;;;;;;11.90;2.10;;;;;;;;;;6313744;22;20112;-85
2022/05/27 12:03:17;;;;;;;12.25;1.95;;;;;;;;;;6311635;22;20368;-85
2022/05/27 12:06:10;;;;;;;11.18;1.63;;;;;;;;;;6321839;22;20319;-85
2022/05/27 12:08:55;;;;;;;10.27;2.60;;;;;;;;;;6320892;22;20115;-85
2022/05/27 12:17:51;;;;;;;11.90;2.30;;;;;;;;;;6251743;23;21148;-84
2022/05/27 12:20:29;;;;;;;10.68;2.17;;;;;;;;;;6167446;23;20527;-85
2022/05/27 12:23:00;;;;;;;9.88;1.35;;;;;;;;;;6230060;23;20109;-90
2022/05/27 12:25:37;;;;;;;9.75;2.30;;;;;;;;;;6218235;23;20542;-91
2022/05/27 12:28:06;;;;;;;12.32;1.83;;;;;;;;;;6192759;23;20607;-89
2022/05/27 12:31:04;;;;;;;12.13;2.45;;;;;;;;;;6227930;23;20111;-90
2022/05/27 12:33:35;;;;;;;10.02;1.55;;;;;;;;;;6227247;23;20043;-92
2022/05/27 12:36:33;;;;;;;7.18;1.85;;;;;;;;;;6191890;23;20022;-90
2022/05/27 12:39:05;;;;;;;12.52;1.42;;;;;;;;;;6227138;23;20115;-91
2022/05/27 12:41:39;;;;;;;11.68;1.40;;;;;;;;;;6217300;23;20032;-91
2022/05/27 12:44:25;;;;;;;11.32;1.40;;;;;;;;;;6242937;23;20025;-91
2022/05/27 12:46:59;;;;;;;9.00;1.60;;;;;;;;;;6227783;23;20046;-91
2022/05/27 12:49:35;;;;;;;7.47;1.90;;;;;;;;;;6227218;23;20024;-90
2022/05/27 12:52:28;;;;;;;5.97;1.20;;;;;;;;;;6192449;23;20012;-91
2022/05/27 12:54:58;;;;;;;9.73;1.77;;;;;;;;;;6298539;22;20050;-91
2022/05/27 13:03:50;;;;;;;9.13;1.17;;;;;;;;;;6310259;22;20106;-90
2022/05/27 13:06:19;;;;;;;9.05;1.23;;;;;;;;;;6322640;22;20467;-89
2022/05/27 13:09:00;;;;;;;10.27;1.23;;;;;;;;;;6295327;22;20018;-89
2022/05/27 13:11:37;;;;;;;9.32;1.50;;;;;;;;;;6286236;22;20023;-91
2022/05/27 13:14:05;;;;;;;3.72;1.30;;;;;;;;;;6295313;22;20018;-90
2022/05/27 13:17:08;;;;;;;8.93;1.65;;;;;;;;;;6300134;22;20026;-90
2022/05/27 13:19:44;;;;;;;9.23;1.88;;;;;;;;;;6285866;22;20042;-90
2022/05/27 13:22:35;;;;;;;13.18;1.73;;;;;;;;;;6285998;22;20045;-90
2022/05/27 13:25:27;;;;;;;8.40;1.65;;;;;;;;;;6321038;22;20015;-88
2022/05/27 13:28:08;;;;;;;9.02;1.77;;;;;;;;;;6285206;22;20412;-90
2022/05/27 13:30:56;;;;;;;7.75;1.48;;;;;;;;;;6321377;22;20019;-90
2022/05/27 13:33:29;;;;;;;8.60;1.83;;;;;;;;;;6321813;22;20100;-92
2022/05/27 13:36:01;;;;;;;7.78;1.30;;;;;;;;;;6321647;22;20042;-91
2022/05/27 13:39:10;;;;;;;5.40;1.20;;;;;;;;;;6289711;22;20100;-90
2022/05/27 13:41:41;;;;;;;8.25;1.52;;;;;;;;;;6285128;22;20027;-91
2022/05/27 13:44:16;;;;;;;10.02;1.88;;;;;;;;;;6285247;22;20054;-91
2022/05/27 13:46:49;;;;;;;14.45;1.92;;;;;;;;;;6321932;22;20093;-90
2022/05/27 13:49:23;;;;;;;9.30;1.17;;;;;;;;;;6322089;22;20383;-92
2022/05/27 13:51:51;;;;;;;8.25;1.98;;;;;;;;;;6296623;22;20453;-91
2022/05/27 13:54:22;;;;;;;7.70;1.67;;;;;;;;;;6259364;22;20029;-91
2022/05/27 13:57:03;;;;;;;12.63;1.98;;;;;;;;;;6285802;22;20019;-90
2022/05/27 13:59:42;;;;;;;8.20;1.50;;;;;;;;;;6321335;22;20363;-90
2022/05/27 14:05:31;;;;;;;10.10;1.80;;;;;;;;;;6322144;22;20015;-90
2022/05/27 14:08:03;;;;;;;5.80;0.95;;;;;;;;;;6322204;22;20347;-90
2022/05/27 14:10:41;;;;;;;10.68;1.88;;;;;;;;;;6285143;22;20033;-91
2022/05/27 14:13:25;;;;;;;5.93;1.20;;;;;;;;;;6322355;22;20019;-92
2022/05/27 14:15:53;;;;;;;12.85;1.58;;;;;;;;;;6286418;22;20023;-90
2022/05/27 14:18:33;;;;;;;7.13;1.33;;;;;;;;;;6285110;22;20031;-91
2022/05/27 14:23:51;;;;;;;6.50;1.38;;;;;;;;;;6285710;22;20023;-92
2022/05/27 14:26:19;;;;;;;8.70;1.35;;;;;;;;;;6284009;22;20323;-91
2022/05/27 14:28:49;;;;;;;9.52;1.70;;;;;;;;;;6310347;22;20111;-91
2022/05/27 14:31:27;;;;;;;8.98;1.60;;;;;;;;;;6311049;22;20046;-92
2022/05/27 14:34:19;;;;;;;7.63;1.38;;;;;;;;;;6286247;22;20034;-92
2022/05/27 14:37:11;;;;;;;6.68;1.55;;;;;;;;;;6286867;22;20019;-92
2022/05/27 14:39:40;;;;;;;7.57;1.63;;;;;;;;;;6311491;22;20031;-92
2022/05/27 14:42:08;;;;;;;9.98;1.58;;;;;;;;;;6322138;22;20018;-92
2022/05/27 14:44:44;;;;;;;10.63;1.83;;;;;;;;;;6311805;22;20730;-93
2022/05/27 14:47:31;;;;;;;10.50;1.92;;;;;;;;;;6322480;22;20383;-93
2022/05/27 14:50:19;;;;;;;8.90;1.45;;;;;;;;;;6286828;22;20031;-92
2022/05/27 14:52:56;;;;;;;13.45;2.17;;;;;;;;;;6326800;22;20015;-94
2022/05/27 14:55:57;;;;;;;10.10;1.85;;;;;;;;;;6294954;22;20022;-94
2022/05/27 14:58:35;;;;;;;7.53;1.50;;;;;;;;;;6292276;22;20361;-95
2022/05/27 15:01:05;;;;;;;12.95;2.00;;;;;;;;;;6290977;22;20022;-95
2022/05/27 15:03:42;;;;;;;9.07;1.30;;;;;;;;;;6289814;22;20033;-93
2022/05/27 15:06:26;;;;;;;14.48;2.47;;;;;;;;;;6326872;22;20014;-94
2022/05/27 15:09:12;;;;;;;10.88;1.88;;;;;;;;;;6286500;22;20022;-93
2022/05/27 15:11:46;;;;;;;8.48;1.80;;;;;;;;;;6285988;22;20076;-93
2022/05/27 15:14:29;;;;;;;10.10;1.55;;;;;;;;;;6284732;22;20090;-93
2022/05/27 15:17:03;;;;;;;12.93;1.98;;;;;;;;;;6286167;22;20019;-93
2022/05/27 15:19:43;;;;;;;9.35;2.03;;;;;;;;;;6322140;22;20060;-93
2022/05/27 15:22:13;;;;;;;11.05;2.05;;;;;;;;;;6284079;22;20026;-93
2022/05/27 15:24:51;;;;;;;13.30;1.67;;;;;;;;;;6285231;22;20010;-92
2022/05/27 15:33:22;;;;;;;10.50;2.45;;;;;;;;;;6321260;22;20019;-90
2022/05/27 15:35:53;;;;;;;4.78;1.00;;;;;;;;;;6283432;22;20010;-90
2022/05/27 15:38:28;;;;;;;11.85;1.58;;;;;;;;;;6321525;22;20049;-93
2022/05/27 15:41:03;;;;;;;7.20;1.58;;;;;;;;;;6320916;22;20428;-92
2022/05/27 15:43:40;;;;;;;7.97;1.88;;;;;;;;;;6283375;22;20015;-92
2022/05/27 15:46:16;;;;;;;9.77;1.70;;;;;;;;;;6319022;22;20456;-91
2022/05/27 15:48:43;;;;;;;10.00;1.77;;;;;;;;;;6285938;22;20053;-93
2022/05/27 15:51:12;;;;;;;6.80;1.23;;;;;;;;;;6283296;22;20408;-91
2022/05/27 15:53:41;;;;;;;14.20;2.22;;;;;;;;;;6280719;22;20019;-91
2022/05/27 15:56:33;;;;;;;9.88;1.65;;;;;;;;;;6308612;22;20033;-91
2022/05/27 15:59:02;;;;;;;7.25;1.67;;;;;;;;;;6318965;22;20017;-90
2022/05/27 16:01:29;;;;;;;7.18;1.42;;;;;;;;;;6283035;22;20023;-91
2022/05/27 16:03:58;;;;;;;7.35;1.40;;;;;;;;;;6283455;22;20019;-93
2022/05/27 16:06:49;;;;;;;7.35;1.80;;;;;;;;;;6324910;22;20514;-92
2022/05/27 16:09:18;;;;;;;8.32;1.25;;;;;;;;;;6287071;22;20075;-90
2022/05/27 16:11:47;;;;;;;6.22;1.05;;;;;;;;;;6294810;22;20022;-90
2022/05/27 16:14:15;;;;;;;11.93;1.40;;;;;;;;;;6282726;22;20038;-91
2022/05/27 16:19:35;;;;;;;7.15;1.80;;;;;;;;;;6282940;22;20027;-92
2022/05/27 16:22:07;;;;;;;6.60;1.08;;;;;;;;;;6319319;22;20022;-91
2022/05/27 16:24:35;;;;;;;8.15;1.88;;;;;;;;;;6284050;22;20579;-91
2022/05/27 16:27:03;;;;;;;8.25;2.17;;;;;;;;;;6322883;22;20025;-92
2022/05/27 16:29:37;;;;;;;10.40;1.73;;;;;;;;;;6311105;22;20106;-93
2022/05/27 16:32:05;;;;;;;15.77;2.38;;;;;;;;;;6287395;22;20031;-86
2022/05/27 16:34:34;;;;;;;11.65;1.83;;;;;;;;;;6288912;22;20044;-93
2022/05/27 16:37:01;;;;;;;10.13;1.42;;;;;;;;;;6351288;22;20023;-94
2022/05/27 16:39:29;;;;;;;6.07;1.30;;;;;;;;;;6352736;22;20015;-92
2022/05/27 16:41:57;;;;;;;5.43;1.17;;;;;;;;;;6313074;22;20018;-94
2022/05/27 16:44:49;;;;;;;4.32;1.20;;;;;;;;;;6330636;22;20022;-93
2022/05/27 16:47:17;;;;;;;7.47;1.63;;;;;;;;;;6287485;22;20019;-93
2022/05/27 16:49:46;;;;;;;6.70;1.30;;;;;;;;;;6288891;22;20448;-91
2022/05/27 16:52:14;;;;;;;7.57;1.42;;;;;;;;;;6289567;22;20026;-93
2022/05/27 16:54:41;;;;;;;9.52;1.45;;;;;;;;;;6289974;22;20101;-94
2022/05/27 16:57:09;;;;;;;5.68;1.05;;;;;;;;;;6290665;22;20102;-93